sensor_id;sensor_type;location;lat;lon;timestamp;P1;durP1;ratioP1;P2;durP2;ratioP2
21816;SDS011;13247;47.504;7.382;2023-03-16T00:01:22;6.30;;;3.08;;
21816;SDS011;13247;47.504;7.382;2023-03-16T00:04:07;8.65;;;3.28;;
21816;SDS011;13247;47.504;7.382;2023-03-16T00:06:52;10.52;;;4.18;;
21816;SDS011;13247;47.504;7.382;2023-03-16T00:09:37;7.03;;;3.30;;
21816;SDS011;13247;47.504;7.382;2023-03-16T00:12:23;5.28;;;3.03;;
21816;SDS011;13247;47.504;7.382;2023-03-16T00:15:08;4.70;;;2.97;;
21816;SDS011;13247;47.504;7.382;2023-03-16T00:17:56;7.35;;;3.50;;
21816;SDS011;13247;47.504;7.382;2023-03-16T00:20:40;4.47;;;3.20;;
21816;SDS011;13247;47.504;7.382;2023-03-16T00:23:25;7.20;;;3.17;;
21816;SDS011;13247;47.504;7.382;2023-03-16T00:26:10;8.50;;;3.70;;
21816;SDS011;13247;47.504;7.382;2023-03-16T00:28:55;7.90;;;4.28;;
21816;SDS011;13247;47.504;7.382;2023-03-16T00:31:40;8.70;;;3.80;;
21816;SDS011;13247;47.504;7.382;2023-03-16T00:34:26;8.18;;;4.50;;
21816;SDS011;13247;47.504;7.382;2023-03-16T00:37:13;7.50;;;3.40;;
21816;SDS011;13247;47.504;7.382;2023-03-16T00:39:59;6.90;;;2.97;;
21816;SDS011;13247;47.504;7.382;2023-03-16T00:42:44;6.53;;;3.38;;
21816;SDS011;13247;47.504;7.382;2023-03-16T00:45:28;2.63;;;2.03;;
21816;SDS011;13247;47.504;7.382;2023-03-16T00:48:15;4.20;;;2.40;;
21816;SDS011;13247;47.504;7.382;2023-03-16T00:51:01;7.82;;;2.80;;
21816;SDS011;13247;47.504;7.382;2023-03-16T00:53:48;4.10;;;2.30;;
21816;SDS011;13247;47.504;7.382;2023-03-16T00:56:33;3.25;;;1.80;;
21816;SDS011;13247;47.504;7.382;2023-03-16T00:59:17;5.80;;;2.72;;
21816;SDS011;13247;47.504;7.382;2023-03-16T01:02:04;7.60;;;3.65;;
21816;SDS011;13247;47.504;7.382;2023-03-16T01:04:50;4.43;;;2.92;;
21816;SDS011;13247;47.504;7.382;2023-03-16T01:07:37;2.95;;;2.33;;
21816;SDS011;13247;47.504;7.382;2023-03-16T01:10:22;4.57;;;2.38;;
21816;SDS011;13247;47.504;7.382;2023-03-16T01:13:07;3.90;;;2.53;;
21816;SDS011;13247;47.504;7.382;2023-03-16T01:15:51;5.10;;;2.28;;
21816;SDS011;13247;47.504;7.382;2023-03-16T01:18:36;3.85;;;2.40;;
21816;SDS011;13247;47.504;7.382;2023-03-16T01:21:21;9.25;;;3.88;;
21816;SDS011;13247;47.504;7.382;2023-03-16T01:24:06;10.02;;;3.20;;
21816;SDS011;13247;47.504;7.382;2023-03-16T01:26:52;9.15;;;3.00;;
21816;SDS011;13247;47.504;7.382;2023-03-16T01:29:36;5.53;;;2.90;;
21816;SDS011;13247;47.504;7.382;2023-03-16T01:32:22;5.25;;;2.53;;
21816;SDS011;13247;47.504;7.382;2023-03-16T01:35:07;13.15;;;6.53;;
21816;SDS011;13247;47.504;7.382;2023-03-16T01:37:52;9.68;;;4.97;;
21816;SDS011;13247;47.504;7.382;2023-03-16T01:40:36;7.95;;;4.22;;
21816;SDS011;13247;47.504;7.382;2023-03-16T01:43:22;5.72;;;3.33;;
21816;SDS011;13247;47.504;7.382;2023-03-16T01:46:11;5.57;;;3.10;;
21816;SDS011;13247;47.504;7.382;2023-03-16T01:49:11;6.50;;;2.92;;
21816;SDS011;13247;47.504;7.382;2023-03-16T01:52:17;4.63;;;2.60;;
21816;SDS011;13247;47.504;7.382;2023-03-16T01:55:06;3.83;;;2.30;;
21816;SDS011;13247;47.504;7.382;2023-03-16T01:57:55;4.18;;;2.33;;
21816;SDS011;13247;47.504;7.382;2023-03-16T02:00:40;2.92;;;2.15;;
21816;SDS011;13247;47.504;7.382;2023-03-16T02:03:25;3.70;;;2.40;;
21816;SDS011;13247;47.504;7.382;2023-03-16T02:06:11;3.10;;;1.70;;
21816;SDS011;13247;47.504;7.382;2023-03-16T02:09:00;3.22;;;2.13;;
21816;SDS011;13247;47.504;7.382;2023-03-16T02:11:46;2.45;;;1.90;;
21816;SDS011;13247;47.504;7.382;2023-03-16T02:14:31;5.97;;;2.80;;
21816;SDS011;13247;47.504;7.382;2023-03-16T02:17:18;9.15;;;3.88;;
21816;SDS011;13247;47.504;7.382;2023-03-16T02:22:57;4.18;;;2.38;;
21816;SDS011;13247;47.504;7.382;2023-03-16T02:25:46;4.75;;;2.85;;
21816;SDS011;13247;47.504;7.382;2023-03-16T02:28:44;11.27;;;4.03;;
21816;SDS011;13247;47.504;7.382;2023-03-16T02:31:43;9.63;;;4.97;;
21816;SDS011;13247;47.504;7.382;2023-03-16T02:34:29;11.60;;;5.28;;
21816;SDS011;13247;47.504;7.382;2023-03-16T02:37:15;7.95;;;3.58;;
21816;SDS011;13247;47.504;7.382;2023-03-16T02:40:00;7.07;;;3.30;;
21816;SDS011;13247;47.504;7.382;2023-03-16T02:42:55;4.82;;;2.90;;
21816;SDS011;13247;47.504;7.382;2023-03-16T02:45:58;5.95;;;3.08;;
21816;SDS011;13247;47.504;7.382;2023-03-16T02:48:58;4.70;;;2.55;;
21816;SDS011;13247;47.504;7.382;2023-03-16T02:51:55;6.13;;;3.17;;
21816;SDS011;13247;47.504;7.382;2023-03-16T02:54:39;7.25;;;3.30;;
21816;SDS011;13247;47.504;7.382;2023-03-16T02:57:24;5.40;;;2.88;;
21816;SDS011;13247;47.504;7.382;2023-03-16T03:00:09;6.78;;;3.63;;
21816;SDS011;13247;47.504;7.382;2023-03-16T03:02:59;6.15;;;3.58;;
21816;SDS011;13247;47.504;7.382;2023-03-16T03:05:44;4.70;;;2.40;;
21816;SDS011;13247;47.504;7.382;2023-03-16T03:08:28;4.22;;;2.53;;
21816;SDS011;13247;47.504;7.382;2023-03-16T03:11:15;6.72;;;3.45;;
21816;SDS011;13247;47.504;7.382;2023-03-16T03:14:02;2.90;;;2.20;;
21816;SDS011;13247;47.504;7.382;2023-03-16T03:16:47;3.35;;;2.80;;
21816;SDS011;13247;47.504;7.382;2023-03-16T03:19:32;4.90;;;3.25;;
21816;SDS011;13247;47.504;7.382;2023-03-16T03:22:17;5.18;;;3.28;;
21816;SDS011;13247;47.504;7.382;2023-03-16T03:25:01;3.22;;;2.47;;
21816;SDS011;13247;47.504;7.382;2023-03-16T03:27:47;3.28;;;2.40;;
21816;SDS011;13247;47.504;7.382;2023-03-16T03:30:33;2.55;;;2.05;;
21816;SDS011;13247;47.504;7.382;2023-03-16T03:33:18;3.35;;;2.05;;
21816;SDS011;13247;47.504;7.382;2023-03-16T03:36:04;3.55;;;2.08;;
21816;SDS011;13247;47.504;7.382;2023-03-16T03:38:49;2.53;;;1.65;;
21816;SDS011;13247;47.504;7.382;2023-03-16T03:41:37;3.22;;;1.95;;
21816;SDS011;13247;47.504;7.382;2023-03-16T03:44:22;2.47;;;1.83;;
21816;SDS011;13247;47.504;7.382;2023-03-16T03:47:07;2.28;;;1.80;;
21816;SDS011;13247;47.504;7.382;2023-03-16T03:49:53;3.72;;;1.90;;
21816;SDS011;13247;47.504;7.382;2023-03-16T03:52:38;4.05;;;1.88;;
21816;SDS011;13247;47.504;7.382;2023-03-16T03:55:22;1.52;;;1.42;;
21816;SDS011;13247;47.504;7.382;2023-03-16T03:58:07;1.35;;;1.20;;
21816;SDS011;13247;47.504;7.382;2023-03-16T04:00:51;1.83;;;1.50;;
21816;SDS011;13247;47.504;7.382;2023-03-16T04:03:36;4.43;;;1.60;;
21816;SDS011;13247;47.504;7.382;2023-03-16T04:06:20;5.82;;;1.77;;
21816;SDS011;13247;47.504;7.382;2023-03-16T04:09:05;2.08;;;1.70;;
21816;SDS011;13247;47.504;7.382;2023-03-16T04:11:50;4.32;;;1.50;;
21816;SDS011;13247;47.504;7.382;2023-03-16T04:14:35;3.25;;;1.73;;
21816;SDS011;13247;47.504;7.382;2023-03-16T04:17:19;2.58;;;1.80;;
21816;SDS011;13247;47.504;7.382;2023-03-16T04:20:05;4.07;;;1.50;;
21816;SDS011;13247;47.504;7.382;2023-03-16T04:22:55;4.18;;;1.55;;
21816;SDS011;13247;47.504;7.382;2023-03-16T04:25:43;3.65;;;1.55;;
21816;SDS011;13247;47.504;7.382;2023-03-16T04:28:28;3.63;;;1.65;;
21816;SDS011;13247;47.504;7.382;2023-03-16T04:31:12;3.08;;;1.98;;
21816;SDS011;13247;47.504;7.382;2023-03-16T04:33:57;1.92;;;1.42;;
21816;SDS011;13247;47.504;7.382;2023-03-16T04:36:42;4.13;;;1.50;;
21816;SDS011;13247;47.504;7.382;2023-03-16T04:39:27;5.40;;;1.40;;
21816;SDS011;13247;47.504;7.382;2023-03-16T04:42:12;1.90;;;1.42;;
21816;SDS011;13247;47.504;7.382;2023-03-16T04:44:57;4.85;;;1.80;;
21816;SDS011;13247;47.504;7.382;2023-03-16T04:47:42;3.28;;;1.92;;
21816;SDS011;13247;47.504;7.382;2023-03-16T04:50:27;4.70;;;2.35;;
21816;SDS011;13247;47.504;7.382;2023-03-16T04:53:11;4.00;;;2.42;;
21816;SDS011;13247;47.504;7.382;2023-03-16T04:55:56;3.50;;;2.20;;
21816;SDS011;13247;47.504;7.382;2023-03-16T04:58:41;3.58;;;1.95;;
21816;SDS011;13247;47.504;7.382;2023-03-16T05:01:27;2.85;;;1.90;;
21816;SDS011;13247;47.504;7.382;2023-03-16T05:04:11;3.10;;;2.10;;
21816;SDS011;13247;47.504;7.382;2023-03-16T05:06:56;3.78;;;1.75;;
21816;SDS011;13247;47.504;7.382;2023-03-16T05:09:40;4.20;;;1.70;;
21816;SDS011;13247;47.504;7.382;2023-03-16T05:12:25;4.78;;;1.90;;
21816;SDS011;13247;47.504;7.382;2023-03-16T05:15:10;3.08;;;1.60;;
21816;SDS011;13247;47.504;7.382;2023-03-16T05:17:54;4.25;;;1.90;;
21816;SDS011;13247;47.504;7.382;2023-03-16T05:20:39;2.10;;;1.55;;
21816;SDS011;13247;47.504;7.382;2023-03-16T05:23:24;4.55;;;2.35;;
21816;SDS011;13247;47.504;7.382;2023-03-16T05:26:09;2.40;;;1.70;;
21816;SDS011;13247;47.504;7.382;2023-03-16T05:28:55;1.73;;;1.60;;
21816;SDS011;13247;47.504;7.382;2023-03-16T05:31:41;4.47;;;1.90;;
21816;SDS011;13247;47.504;7.382;2023-03-16T05:34:25;1.88;;;1.63;;
21816;SDS011;13247;47.504;7.382;2023-03-16T05:37:10;3.25;;;1.45;;
21816;SDS011;13247;47.504;7.382;2023-03-16T05:39:56;2.13;;;1.50;;
21816;SDS011;13247;47.504;7.382;2023-03-16T05:42:42;2.35;;;1.88;;
21816;SDS011;13247;47.504;7.382;2023-03-16T05:45:27;2.33;;;1.77;;
21816;SDS011;13247;47.504;7.382;2023-03-16T05:48:13;1.85;;;1.50;;
21816;SDS011;13247;47.504;7.382;2023-03-16T05:50:58;5.07;;;2.10;;
21816;SDS011;13247;47.504;7.382;2023-03-16T05:53:44;7.63;;;3.40;;
21816;SDS011;13247;47.504;7.382;2023-03-16T05:56:29;28.80;;;9.15;;
21816;SDS011;13247;47.504;7.382;2023-03-16T05:59:13;52.45;;;18.05;;
21816;SDS011;13247;47.504;7.382;2023-03-16T06:02:00;57.33;;;20.50;;
21816;SDS011;13247;47.504;7.382;2023-03-16T06:04:44;35.42;;;12.98;;
21816;SDS011;13247;47.504;7.382;2023-03-16T06:07:29;41.45;;;14.02;;
21816;SDS011;13247;47.504;7.382;2023-03-16T06:10:13;29.30;;;11.73;;
21816;SDS011;13247;47.504;7.382;2023-03-16T06:12:58;18.25;;;7.97;;
21816;SDS011;13247;47.504;7.382;2023-03-16T06:15:43;7.97;;;3.90;;
21816;SDS011;13247;47.504;7.382;2023-03-16T06:18:28;4.60;;;2.60;;
21816;SDS011;13247;47.504;7.382;2023-03-16T06:21:13;5.63;;;3.15;;
21816;SDS011;13247;47.504;7.382;2023-03-16T06:23:58;3.67;;;2.00;;
21816;SDS011;13247;47.504;7.382;2023-03-16T06:26:43;3.55;;;1.95;;
21816;SDS011;13247;47.504;7.382;2023-03-16T06:29:27;5.85;;;2.65;;
21816;SDS011;13247;47.504;7.382;2023-03-16T06:32:12;4.15;;;2.30;;
21816;SDS011;13247;47.504;7.382;2023-03-16T06:34:57;3.63;;;2.38;;
21816;SDS011;13247;47.504;7.382;2023-03-16T06:37:44;5.78;;;2.63;;
21816;SDS011;13247;47.504;7.382;2023-03-16T06:40:29;5.07;;;2.67;;
21816;SDS011;13247;47.504;7.382;2023-03-16T06:43:15;3.42;;;2.33;;
21816;SDS011;13247;47.504;7.382;2023-03-16T06:46:00;2.90;;;2.22;;
21816;SDS011;13247;47.504;7.382;2023-03-16T06:48:45;3.90;;;2.05;;
21816;SDS011;13247;47.504;7.382;2023-03-16T06:51:30;3.72;;;1.85;;
21816;SDS011;13247;47.504;7.382;2023-03-16T06:54:15;2.10;;;1.90;;
21816;SDS011;13247;47.504;7.382;2023-03-16T06:56:59;7.07;;;2.42;;
21816;SDS011;13247;47.504;7.382;2023-03-16T06:59:44;4.15;;;2.60;;
21816;SDS011;13247;47.504;7.382;2023-03-16T07:02:29;5.97;;;2.78;;
21816;SDS011;13247;47.504;7.382;2023-03-16T07:05:15;10.43;;;2.72;;
21816;SDS011;13247;47.504;7.382;2023-03-16T07:08:00;5.50;;;2.85;;
21816;SDS011;13247;47.504;7.382;2023-03-16T07:10:44;6.15;;;2.78;;
21816;SDS011;13247;47.504;7.382;2023-03-16T07:13:29;6.20;;;2.63;;
21816;SDS011;13247;47.504;7.382;2023-03-16T07:16:13;7.32;;;3.25;;
21816;SDS011;13247;47.504;7.382;2023-03-16T07:18:58;4.05;;;2.42;;
21816;SDS011;13247;47.504;7.382;2023-03-16T07:21:42;4.20;;;2.30;;
21816;SDS011;13247;47.504;7.382;2023-03-16T07:24:27;3.13;;;1.65;;
21816;SDS011;13247;47.504;7.382;2023-03-16T07:27:12;1.60;;;1.50;;
21816;SDS011;13247;47.504;7.382;2023-03-16T07:29:56;4.28;;;2.33;;
21816;SDS011;13247;47.504;7.382;2023-03-16T07:32:42;1.67;;;1.42;;
21816;SDS011;13247;47.504;7.382;2023-03-16T07:35:27;1.63;;;1.30;;
21816;SDS011;13247;47.504;7.382;2023-03-16T07:38:12;2.47;;;1.50;;
21816;SDS011;13247;47.504;7.382;2023-03-16T07:40:57;1.30;;;1.20;;
21816;SDS011;13247;47.504;7.382;2023-03-16T07:43:42;4.07;;;1.70;;
21816;SDS011;13247;47.504;7.382;2023-03-16T07:46:27;1.33;;;1.23;;
21816;SDS011;13247;47.504;7.382;2023-03-16T07:49:11;3.40;;;1.70;;
21816;SDS011;13247;47.504;7.382;2023-03-16T07:51:56;2.78;;;1.80;;
21816;SDS011;13247;47.504;7.382;2023-03-16T07:54:41;3.33;;;1.67;;
21816;SDS011;13247;47.504;7.382;2023-03-16T07:57:26;2.58;;;1.42;;
21816;SDS011;13247;47.504;7.382;2023-03-16T08:00:10;4.50;;;2.65;;
21816;SDS011;13247;47.504;7.382;2023-03-16T08:02:56;3.33;;;1.63;;
21816;SDS011;13247;47.504;7.382;2023-03-16T08:05:42;2.97;;;1.80;;
21816;SDS011;13247;47.504;7.382;2023-03-16T08:08:26;2.85;;;1.85;;
21816;SDS011;13247;47.504;7.382;2023-03-16T08:11:11;3.00;;;1.70;;
21816;SDS011;13247;47.504;7.382;2023-03-16T08:13:55;3.35;;;1.67;;
21816;SDS011;13247;47.504;7.382;2023-03-16T08:16:40;3.30;;;2.20;;
21816;SDS011;13247;47.504;7.382;2023-03-16T08:19:25;1.83;;;1.60;;
21816;SDS011;13247;47.504;7.382;2023-03-16T08:22:10;2.22;;;1.65;;
21816;SDS011;13247;47.504;7.382;2023-03-16T08:24:55;3.15;;;1.92;;
21816;SDS011;13247;47.504;7.382;2023-03-16T08:27:40;3.13;;;1.88;;
21816;SDS011;13247;47.504;7.382;2023-03-16T08:30:25;2.50;;;1.63;;
21816;SDS011;13247;47.504;7.382;2023-03-16T08:33:09;10.63;;;2.22;;
21816;SDS011;13247;47.504;7.382;2023-03-16T08:35:54;4.05;;;1.85;;
21816;SDS011;13247;47.504;7.382;2023-03-16T08:38:40;2.47;;;1.90;;
21816;SDS011;13247;47.504;7.382;2023-03-16T08:41:27;3.28;;;2.38;;
21816;SDS011;13247;47.504;7.382;2023-03-16T08:44:13;3.17;;;2.22;;
21816;SDS011;13247;47.504;7.382;2023-03-16T08:46:57;3.28;;;2.22;;
21816;SDS011;13247;47.504;7.382;2023-03-16T08:49:42;4.00;;;2.20;;
21816;SDS011;13247;47.504;7.382;2023-03-16T08:52:27;8.65;;;2.00;;
21816;SDS011;13247;47.504;7.382;2023-03-16T08:55:11;3.63;;;2.03;;
21816;SDS011;13247;47.504;7.382;2023-03-16T08:57:58;6.05;;;2.30;;
21816;SDS011;13247;47.504;7.382;2023-03-16T09:00:43;5.32;;;2.28;;
21816;SDS011;13247;47.504;7.382;2023-03-16T09:03:28;4.35;;;2.15;;
21816;SDS011;13247;47.504;7.382;2023-03-16T09:06:14;2.70;;;1.80;;
21816;SDS011;13247;47.504;7.382;2023-03-16T09:08:59;4.45;;;2.45;;
21816;SDS011;13247;47.504;7.382;2023-03-16T09:11:44;2.92;;;1.48;;
21816;SDS011;13247;47.504;7.382;2023-03-16T09:14:29;3.47;;;2.22;;
21816;SDS011;13247;47.504;7.382;2023-03-16T09:17:14;6.13;;;2.00;;
21816;SDS011;13247;47.504;7.382;2023-03-16T09:19:58;2.58;;;1.77;;
21816;SDS011;13247;47.504;7.382;2023-03-16T09:22:44;3.67;;;1.70;;
21816;SDS011;13247;47.504;7.382;2023-03-16T09:25:29;3.50;;;1.60;;
21816;SDS011;13247;47.504;7.382;2023-03-16T09:28:14;2.72;;;2.00;;
21816;SDS011;13247;47.504;7.382;2023-03-16T09:31:00;1.75;;;1.65;;
21816;SDS011;13247;47.504;7.382;2023-03-16T09:33:45;4.22;;;1.58;;
21816;SDS011;13247;47.504;7.382;2023-03-16T09:36:31;5.07;;;1.83;;
21816;SDS011;13247;47.504;7.382;2023-03-16T09:39:16;2.80;;;1.80;;
21816;SDS011;13247;47.504;7.382;2023-03-16T09:45:22;2.92;;;1.98;;
21816;SDS011;13247;47.504;7.382;2023-03-16T09:48:26;2.78;;;1.75;;
21816;SDS011;13247;47.504;7.382;2023-03-16T09:51:19;2.92;;;1.60;;
21816;SDS011;13247;47.504;7.382;2023-03-16T09:57:23;1.30;;;1.13;;
21816;SDS011;13247;47.504;7.382;2023-03-16T10:00:21;1.95;;;1.40;;
21816;SDS011;13247;47.504;7.382;2023-03-16T10:06:01;2.13;;;1.40;;
21816;SDS011;13247;47.504;7.382;2023-03-16T10:09:12;1.65;;;1.50;;
21816;SDS011;13247;47.504;7.382;2023-03-16T10:12:07;1.55;;;1.20;;
21816;SDS011;13247;47.504;7.382;2023-03-16T10:14:56;3.13;;;1.13;;
21816;SDS011;13247;47.504;7.382;2023-03-16T10:18:00;2.85;;;1.33;;
21816;SDS011;13247;47.504;7.382;2023-03-16T10:20:56;3.03;;;1.17;;
21816;SDS011;13247;47.504;7.382;2023-03-16T10:23:43;1.60;;;1.42;;
21816;SDS011;13247;47.504;7.382;2023-03-16T10:26:34;1.92;;;1.30;;
21816;SDS011;13247;47.504;7.382;2023-03-16T10:29:25;4.72;;;1.48;;
21816;SDS011;13247;47.504;7.382;2023-03-16T10:32:14;2.42;;;1.75;;
21816;SDS011;13247;47.504;7.382;2023-03-16T10:35:02;5.50;;;1.30;;
21816;SDS011;13247;47.504;7.382;2023-03-16T10:38:08;3.55;;;1.75;;
21816;SDS011;13247;47.504;7.382;2023-03-16T10:44:21;2.55;;;1.30;;
21816;SDS011;13247;47.504;7.382;2023-03-16T10:47:15;4.70;;;1.77;;
21816;SDS011;13247;47.504;7.382;2023-03-16T10:50:12;1.58;;;1.40;;
21816;SDS011;13247;47.504;7.382;2023-03-16T10:52:59;5.00;;;1.75;;
21816;SDS011;13247;47.504;7.382;2023-03-16T10:55:45;7.55;;;1.80;;
21816;SDS011;13247;47.504;7.382;2023-03-16T10:58:32;2.92;;;1.52;;
21816;SDS011;13247;47.504;7.382;2023-03-16T11:01:23;3.63;;;1.65;;
21816;SDS011;13247;47.504;7.382;2023-03-16T11:04:12;2.10;;;1.60;;
21816;SDS011;13247;47.504;7.382;2023-03-16T11:07:00;1.35;;;1.20;;
21816;SDS011;13247;47.504;7.382;2023-03-16T11:09:45;5.00;;;1.52;;
21816;SDS011;13247;47.504;7.382;2023-03-16T11:12:30;1.95;;;1.42;;
21816;SDS011;13247;47.504;7.382;2023-03-16T11:15:17;3.90;;;1.30;;
21816;SDS011;13247;47.504;7.382;2023-03-16T11:18:02;2.75;;;1.27;;
21816;SDS011;13247;47.504;7.382;2023-03-16T11:20:48;3.25;;;1.63;;
21816;SDS011;13247;47.504;7.382;2023-03-16T11:23:36;2.67;;;1.55;;
21816;SDS011;13247;47.504;7.382;2023-03-16T11:26:28;3.92;;;1.27;;
21816;SDS011;13247;47.504;7.382;2023-03-16T11:29:31;4.63;;;1.50;;
21816;SDS011;13247;47.504;7.382;2023-03-16T11:32:32;4.87;;;1.63;;
21816;SDS011;13247;47.504;7.382;2023-03-16T11:35:27;7.38;;;1.60;;
21816;SDS011;13247;47.504;7.382;2023-03-16T11:38:28;2.58;;;1.45;;
21816;SDS011;13247;47.504;7.382;2023-03-16T11:41:24;3.38;;;1.70;;
21816;SDS011;13247;47.504;7.382;2023-03-16T11:44:32;2.63;;;1.58;;
21816;SDS011;13247;47.504;7.382;2023-03-16T11:47:50;3.63;;;1.50;;
21816;SDS011;13247;47.504;7.382;2023-03-16T11:51:47;1.85;;;1.70;;
21816;SDS011;13247;47.504;7.382;2023-03-16T11:54:10;4.90;;;1.38;;
21816;SDS011;13247;47.504;7.382;2023-03-16T12:00:12;15.23;;;2.20;;
21816;SDS011;13247;47.504;7.382;2023-03-16T12:03:36;3.22;;;1.40;;
21816;SDS011;13247;47.504;7.382;2023-03-16T12:07:04;3.95;;;2.05;;
21816;SDS011;13247;47.504;7.382;2023-03-16T12:10:30;4.53;;;1.83;;
21816;SDS011;13247;47.504;7.382;2023-03-16T12:16:25;4.13;;;1.50;;
21816;SDS011;13247;47.504;7.382;2023-03-16T12:19:16;1.65;;;1.15;;
21816;SDS011;13247;47.504;7.382;2023-03-16T12:25:16;2.10;;;1.58;;
21816;SDS011;13247;47.504;7.382;2023-03-16T12:28:05;2.60;;;1.50;;
21816;SDS011;13247;47.504;7.382;2023-03-16T12:31:06;2.40;;;1.67;;
21816;SDS011;13247;47.504;7.382;2023-03-16T12:42:57;3.17;;;1.92;;
21816;SDS011;13247;47.504;7.382;2023-03-16T12:49:00;4.95;;;2.08;;
21816;SDS011;13247;47.504;7.382;2023-03-16T12:51:47;3.60;;;1.70;;
21816;SDS011;13247;47.504;7.382;2023-03-16T12:54:49;3.80;;;1.83;;
21816;SDS011;13247;47.504;7.382;2023-03-16T12:57:35;2.30;;;1.75;;
21816;SDS011;13247;47.504;7.382;2023-03-16T13:00:36;2.92;;;1.73;;
21816;SDS011;13247;47.504;7.382;2023-03-16T13:03:23;3.33;;;1.88;;
21816;SDS011;13247;47.504;7.382;2023-03-16T13:06:19;3.40;;;1.83;;
21816;SDS011;13247;47.504;7.382;2023-03-16T13:09:06;2.92;;;1.58;;
21816;SDS011;13247;47.504;7.382;2023-03-16T13:11:53;3.80;;;1.90;;
21816;SDS011;13247;47.504;7.382;2023-03-16T13:14:40;2.92;;;1.67;;
21816;SDS011;13247;47.504;7.382;2023-03-16T13:17:27;2.70;;;1.45;;
21816;SDS011;13247;47.504;7.382;2023-03-16T13:20:30;3.38;;;1.70;;
21816;SDS011;13247;47.504;7.382;2023-03-16T13:28:51;2.70;;;1.85;;
21816;SDS011;13247;47.504;7.382;2023-03-16T13:31:39;4.70;;;2.22;;
21816;SDS011;13247;47.504;7.382;2023-03-16T13:34:31;4.35;;;2.00;;
21816;SDS011;13247;47.504;7.382;2023-03-16T13:37:22;3.85;;;1.60;;
21816;SDS011;13247;47.504;7.382;2023-03-16T13:40:18;2.38;;;1.50;;
21816;SDS011;13247;47.504;7.382;2023-03-16T13:43:17;2.70;;;1.38;;
21816;SDS011;13247;47.504;7.382;2023-03-16T13:46:18;1.70;;;1.60;;
21816;SDS011;13247;47.504;7.382;2023-03-16T13:49:10;3.33;;;1.70;;
21816;SDS011;13247;47.504;7.382;2023-03-16T13:51:55;2.17;;;1.85;;
21816;SDS011;13247;47.504;7.382;2023-03-16T13:54:40;2.95;;;1.58;;
21816;SDS011;13247;47.504;7.382;2023-03-16T13:57:29;5.28;;;1.75;;
21816;SDS011;13247;47.504;7.382;2023-03-16T14:00:20;2.08;;;1.20;;
21816;SDS011;13247;47.504;7.382;2023-03-16T14:03:13;3.67;;;1.48;;
21816;SDS011;13247;47.504;7.382;2023-03-16T14:06:00;1.70;;;1.20;;
21816;SDS011;13247;47.504;7.382;2023-03-16T14:08:48;5.72;;;1.80;;
21816;SDS011;13247;47.504;7.382;2023-03-16T14:11:36;3.50;;;1.48;;
21816;SDS011;13247;47.504;7.382;2023-03-16T14:14:28;4.07;;;1.50;;
21816;SDS011;13247;47.504;7.382;2023-03-16T14:17:20;1.77;;;1.40;;
21816;SDS011;13247;47.504;7.382;2023-03-16T14:20:08;3.60;;;1.60;;
21816;SDS011;13247;47.504;7.382;2023-03-16T14:23:02;2.50;;;1.52;;
21816;SDS011;13247;47.504;7.382;2023-03-16T14:25:47;5.78;;;2.15;;
21816;SDS011;13247;47.504;7.382;2023-03-16T14:28:32;14.70;;;5.38;;
21816;SDS011;13247;47.504;7.382;2023-03-16T14:31:18;2.97;;;1.63;;
21816;SDS011;13247;47.504;7.382;2023-03-16T14:34:05;4.55;;;1.80;;
21816;SDS011;13247;47.504;7.382;2023-03-16T14:37:11;4.63;;;1.70;;
21816;SDS011;13247;47.504;7.382;2023-03-16T14:40:05;6.47;;;2.28;;
21816;SDS011;13247;47.504;7.382;2023-03-16T14:43:03;2.10;;;1.42;;
21816;SDS011;13247;47.504;7.382;2023-03-16T14:45:48;5.60;;;1.60;;
21816;SDS011;13247;47.504;7.382;2023-03-16T14:48:34;3.00;;;1.65;;
21816;SDS011;13247;47.504;7.382;2023-03-16T14:51:20;5.10;;;1.75;;
21816;SDS011;13247;47.504;7.382;2023-03-16T14:54:09;5.18;;;2.00;;
21816;SDS011;13247;47.504;7.382;2023-03-16T14:57:00;1.55;;;1.08;;
21816;SDS011;13247;47.504;7.382;2023-03-16T14:59:47;3.33;;;1.33;;
21816;SDS011;13247;47.504;7.382;2023-03-16T15:02:32;5.88;;;1.38;;
21816;SDS011;13247;47.504;7.382;2023-03-16T15:05:22;4.07;;;1.40;;
21816;SDS011;13247;47.504;7.382;2023-03-16T15:08:22;3.97;;;1.27;;
21816;SDS011;13247;47.504;7.382;2023-03-16T15:11:09;2.40;;;1.25;;
21816;SDS011;13247;47.504;7.382;2023-03-16T15:13:56;1.88;;;1.15;;
21816;SDS011;13247;47.504;7.382;2023-03-16T15:16:57;1.48;;;1.05;;
21816;SDS011;13247;47.504;7.382;2023-03-16T15:19:41;1.55;;;1.15;;
21816;SDS011;13247;47.504;7.382;2023-03-16T15:22:27;6.80;;;1.15;;
21816;SDS011;13247;47.504;7.382;2023-03-16T15:25:22;2.65;;;1.73;;
21816;SDS011;13247;47.504;7.382;2023-03-16T15:28:19;2.08;;;1.40;;
21816;SDS011;13247;47.504;7.382;2023-03-16T15:31:06;2.63;;;1.40;;
21816;SDS011;13247;47.504;7.382;2023-03-16T15:33:54;1.92;;;1.30;;
21816;SDS011;13247;47.504;7.382;2023-03-16T15:36:38;3.00;;;1.90;;
21816;SDS011;13247;47.504;7.382;2023-03-16T15:39:23;2.10;;;1.02;;
21816;SDS011;13247;47.504;7.382;2023-03-16T15:42:12;5.95;;;1.33;;
21816;SDS011;13247;47.504;7.382;2023-03-16T15:44:59;1.92;;;1.10;;
21816;SDS011;13247;47.504;7.382;2023-03-16T15:47:44;1.00;;;0.90;;
21816;SDS011;13247;47.504;7.382;2023-03-16T15:50:31;2.05;;;1.15;;
21816;SDS011;13247;47.504;7.382;2023-03-16T15:56:21;1.30;;;1.20;;
21816;SDS011;13247;47.504;7.382;2023-03-16T15:59:13;1.83;;;0.95;;
21816;SDS011;13247;47.504;7.382;2023-03-16T16:02:01;2.30;;;1.20;;
21816;SDS011;13247;47.504;7.382;2023-03-16T16:04:56;2.58;;;1.25;;
21816;SDS011;13247;47.504;7.382;2023-03-16T16:07:41;1.67;;;1.10;;
21816;SDS011;13247;47.504;7.382;2023-03-16T16:10:26;1.98;;;1.33;;
21816;SDS011;13247;47.504;7.382;2023-03-16T16:13:24;4.25;;;2.03;;
21816;SDS011;13247;47.504;7.382;2023-03-16T16:16:14;3.70;;;2.40;;
21816;SDS011;13247;47.504;7.382;2023-03-16T16:19:00;2.55;;;1.35;;
21816;SDS011;13247;47.504;7.382;2023-03-16T16:21:45;4.22;;;1.35;;
21816;SDS011;13247;47.504;7.382;2023-03-16T16:24:30;4.03;;;2.08;;
21816;SDS011;13247;47.504;7.382;2023-03-16T16:27:16;3.28;;;2.28;;
21816;SDS011;13247;47.504;7.382;2023-03-16T16:30:00;4.32;;;2.40;;
21816;SDS011;13247;47.504;7.382;2023-03-16T16:32:56;11.05;;;3.88;;
21816;SDS011;13247;47.504;7.382;2023-03-16T16:35:41;9.70;;;4.30;;
21816;SDS011;13247;47.504;7.382;2023-03-16T16:38:27;9.13;;;4.47;;
21816;SDS011;13247;47.504;7.382;2023-03-16T16:41:24;8.38;;;4.05;;
21816;SDS011;13247;47.504;7.382;2023-03-16T16:44:15;9.30;;;3.53;;
21816;SDS011;13247;47.504;7.382;2023-03-16T16:47:18;4.25;;;2.70;;
21816;SDS011;13247;47.504;7.382;2023-03-16T16:50:12;5.22;;;2.22;;
21816;SDS011;13247;47.504;7.382;2023-03-16T16:52:58;9.77;;;4.43;;
21816;SDS011;13247;47.504;7.382;2023-03-16T16:55:43;8.35;;;4.55;;
21816;SDS011;13247;47.504;7.382;2023-03-16T16:58:28;8.45;;;3.60;;
21816;SDS011;13247;47.504;7.382;2023-03-16T17:01:14;10.35;;;4.85;;
21816;SDS011;13247;47.504;7.382;2023-03-16T17:04:04;18.23;;;6.90;;
21816;SDS011;13247;47.504;7.382;2023-03-16T17:06:56;11.40;;;4.97;;
21816;SDS011;13247;47.504;7.382;2023-03-16T17:09:44;24.85;;;11.38;;
21816;SDS011;13247;47.504;7.382;2023-03-16T17:12:29;26.75;;;11.13;;
21816;SDS011;13247;47.504;7.382;2023-03-16T17:15:25;19.10;;;9.98;;
21816;SDS011;13247;47.504;7.382;2023-03-16T17:18:12;14.63;;;7.15;;
21816;SDS011;13247;47.504;7.382;2023-03-16T17:20:57;7.18;;;2.40;;
21816;SDS011;13247;47.504;7.382;2023-03-16T17:23:42;5.32;;;2.85;;
21816;SDS011;13247;47.504;7.382;2023-03-16T17:26:32;15.93;;;6.00;;
21816;SDS011;13247;47.504;7.382;2023-03-16T17:29:28;7.97;;;3.10;;
21816;SDS011;13247;47.504;7.382;2023-03-16T17:32:17;20.38;;;7.63;;
21816;SDS011;13247;47.504;7.382;2023-03-16T17:35:11;6.78;;;3.58;;
21816;SDS011;13247;47.504;7.382;2023-03-16T17:37:57;4.90;;;1.85;;